createdAt,value
2023-05-08T00:01:24.007Z,101986.88
2023-05-08T00:03:52.372Z,101991.22
2023-05-08T00:06:19.688Z,101988.72
2023-05-08T00:08:46.716Z,101987.84
2023-05-08T00:11:14.386Z,101986.13
2023-05-08T00:13:41.514Z,101993.81
2023-05-08T00:16:12.686Z,101978.78
2023-05-08T00:18:40.053Z,101973.53
2023-05-08T00:21:07.446Z,101976.16
2023-05-08T00:23:34.583Z,101968.34
2023-05-08T00:26:01.657Z,101969.19
2023-05-08T00:28:28.745Z,101960.44
2023-05-08T00:30:55.903Z,101960.44
2023-05-08T00:33:22.915Z,101967.31
2023-05-08T00:35:49.974Z,101963.00
2023-05-08T00:38:17.082Z,101967.28
2023-05-08T00:40:44.166Z,101969.84
2023-05-08T00:43:11.281Z,101968.09
2023-05-08T00:45:39.678Z,101966.50
2023-05-08T00:48:07.782Z,101957.94
2023-05-08T00:50:36.149Z,101958.56
2023-05-08T00:53:04.506Z,101959.19
2023-05-08T00:55:32.937Z,101959.78
2023-05-08T00:58:00.336Z,101955.41
2023-05-08T01:00:27.747Z,101959.75
2023-05-08T01:02:55.013Z,101956.91
2023-05-08T01:05:22.071Z,101968.25
2023-05-08T01:07:49.207Z,101966.50
2023-05-08T01:10:16.441Z,101967.22
2023-05-08T01:13:09.702Z,101965.38
2023-05-08T01:15:58.963Z,101965.47
2023-05-08T01:18:38.616Z,101953.38
2023-05-08T01:21:41.390Z,101962.97
2023-05-08T01:24:29.855Z,101968.97
2023-05-08T01:27:32.671Z,101962.09
2023-05-08T01:30:18.555Z,101968.13
2023-05-08T01:32:58.225Z,101956.63
2023-05-08T01:35:47.307Z,101972.19
2023-05-08T01:38:33.824Z,101968.41
2023-05-08T01:41:10.718Z,101967.31
2023-05-08T01:44:18.108Z,101979.13
2023-05-08T01:46:49.591Z,101970.31
2023-05-08T01:49:28.099Z,101973.16
2023-05-08T01:52:05.876Z,101968.81
2023-05-08T01:54:39.313Z,101972.44
2023-05-08T01:57:09.067Z,101976.00
2023-05-08T01:59:38.062Z,101973.31
2023-05-08T02:02:06.524Z,101983.72
2023-05-08T02:04:35.705Z,101978.38
2023-05-08T02:07:03.659Z,101985.47
2023-05-08T02:09:32.233Z,101983.06
2023-05-08T02:12:01.150Z,101985.75
2023-05-08T02:14:30.965Z,101984.13
2023-05-08T02:17:01.936Z,101989.50
2023-05-08T02:19:30.244Z,101986.97
2023-05-08T02:21:59.953Z,101986.16
2023-05-08T02:24:27.167Z,101984.25
2023-05-08T02:26:56.856Z,101990.25
2023-05-08T02:29:24.661Z,101990.06
2023-05-08T02:31:54.328Z,102001.34
2023-05-08T02:34:23.351Z,101988.13
2023-05-08T02:36:52.876Z,101993.28
2023-05-08T02:39:25.303Z,102001.97
2023-05-08T02:41:52.435Z,101996.66
2023-05-08T02:44:19.644Z,102003.53
2023-05-08T02:46:56.457Z,102000.78
2023-05-08T02:49:29.243Z,101999.94
2023-05-08T02:52:28.329Z,101993.00
2023-05-08T02:55:01.269Z,101995.66
2023-05-08T02:57:48.067Z,101993.94
2023-05-08T03:00:27.460Z,101993.09
2023-05-08T03:02:59.566Z,101991.44
2023-05-08T03:05:31.747Z,101992.34
2023-05-08T03:08:06.529Z,101985.47
2023-05-08T03:10:35.476Z,101976.84
2023-05-08T03:13:09.154Z,101979.44
2023-05-08T03:15:42.393Z,101974.22
2023-05-08T03:18:13.810Z,101969.69
2023-05-08T03:20:45.053Z,101974.84
2023-05-08T03:23:15.365Z,101965.09
2023-05-08T03:25:43.863Z,101965.19
2023-05-08T03:28:12.316Z,101959.69
2023-05-08T03:30:42.085Z,101961.50
2023-05-08T03:33:11.650Z,101975.28
2023-05-08T03:35:39.925Z,101971.78
2023-05-08T03:38:08.303Z,101964.91
2023-05-08T03:40:38.856Z,101971.94
2023-05-08T03:43:07.979Z,101974.53
2023-05-08T03:45:37.043Z,101967.63
2023-05-08T03:48:06.730Z,101976.44
2023-05-08T03:50:38.488Z,101964.25
2023-05-08T03:53:05.890Z,101970.31
2023-05-08T03:55:33.164Z,101965.06
2023-05-08T03:58:06.298Z,101963.41
2023-05-08T04:01:02.508Z,101960.75
2023-05-08T04:03:54.448Z,101964.09
2023-05-08T04:06:30.702Z,101966.75
2023-05-08T04:09:18.225Z,101962.47
2023-05-08T04:11:50.837Z,101968.53
2023-05-08T04:14:20.524Z,101971.06
2023-05-08T04:16:53.583Z,101965.84
2023-05-08T04:19:25.907Z,101972.72
2023-05-08T04:21:57.255Z,101969.97
2023-05-08T04:24:25.744Z,101973.34
2023-05-08T04:26:53.678Z,101980.22
2023-05-08T04:29:21.172Z,101980.09
2023-05-08T04:31:50.841Z,101981.69
2023-05-08T04:34:18.623Z,101985.22
2023-05-08T04:36:46.073Z,101981.84
2023-05-08T04:39:13.221Z,101984.44
2023-05-08T04:41:40.362Z,101981.00
2023-05-08T04:44:07.729Z,101984.47
2023-05-08T04:46:34.931Z,101985.41
2023-05-08T04:49:02.124Z,101989.78
2023-05-08T04:51:29.482Z,101982.81
2023-05-08T04:53:56.737Z,101989.97
2023-05-08T04:56:23.749Z,101993.59
2023-05-08T04:58:51.278Z,101992.97
2023-05-08T05:01:18.363Z,101999.38
2023-05-08T05:03:45.911Z,101996.09
2023-05-08T05:06:12.991Z,101994.53
2023-05-08T05:08:40.148Z,102002.50
2023-05-08T05:11:07.279Z,102001.75
2023-05-08T05:13:34.537Z,102001.19
2023-05-08T05:16:02.003Z,102013.66
2023-05-08T05:18:29.189Z,102012.97
2023-05-08T05:20:58.649Z,102012.38
2023-05-08T05:23:25.801Z,102022.09
2023-05-08T05:25:53.355Z,102019.72
2023-05-08T05:28:20.393Z,102017.59
2023-05-08T05:30:48.408Z,102019.44
2023-05-08T05:33:15.918Z,102028.31
2023-05-08T05:35:43.397Z,102029.44
2023-05-08T05:38:10.871Z,102025.44
2023-05-08T05:40:38.020Z,102029.09
2023-05-08T05:43:05.905Z,102022.34
2023-05-08T05:45:33.573Z,102026.88
2023-05-08T05:48:02.163Z,102023.50
2023-05-08T05:50:29.320Z,102027.09
2023-05-08T05:52:56.408Z,102028.03
2023-05-08T05:55:23.886Z,102025.63
2023-05-08T05:57:51.104Z,102027.53
2023-05-08T06:00:18.627Z,102035.47
2023-05-08T06:02:46.310Z,102036.34
2023-05-08T06:05:13.796Z,102035.72
2023-05-08T06:07:41.082Z,102038.41
2023-05-08T06:10:08.491Z,102043.81
2023-05-08T06:12:35.910Z,102028.16
2023-05-08T06:15:03.239Z,102040.50
2023-05-08T06:17:30.317Z,102037.19
2023-05-08T06:19:57.501Z,102034.78
2023-05-08T06:22:25.551Z,102037.56
2023-05-08T06:24:55.700Z,102037.72
2023-05-08T06:27:23.178Z,102029.25
2023-05-08T06:29:53.068Z,102038.22
2023-05-08T06:32:21.329Z,102040.13
2023-05-08T06:34:48.684Z,102041.22
2023-05-08T06:37:15.998Z,102041.31
2023-05-08T06:39:43.318Z,102033.63
2023-05-08T06:42:10.398Z,102042.28
2023-05-08T06:44:38.645Z,102048.41
2023-05-08T06:47:06.076Z,102048.25
2023-05-08T06:49:33.109Z,102038.72
2023-05-08T06:52:00.639Z,102052.56
2023-05-08T06:54:27.813Z,102053.38
2023-05-08T06:56:54.947Z,102043.00
2023-05-08T06:59:23.325Z,102043.09
2023-05-08T07:01:50.885Z,102041.63
2023-05-08T07:04:18.101Z,102043.34
2023-05-08T07:06:45.228Z,102050.41
2023-05-08T07:09:12.981Z,102047.13
2023-05-08T07:11:40.060Z,102054.25
2023-05-08T07:14:07.190Z,102047.28
2023-05-08T07:16:34.794Z,102047.34
2023-05-08T07:19:02.057Z,102052.63
2023-05-08T07:21:29.658Z,102049.91
2023-05-08T07:23:56.912Z,102052.44
2023-05-08T07:26:23.952Z,102050.66
2023-05-08T07:28:51.272Z,102052.50
2023-05-08T07:31:18.344Z,102049.97
2023-05-08T07:33:47.069Z,102050.00
2023-05-08T07:36:14.115Z,102043.94
2023-05-08T07:38:41.246Z,102038.00
2023-05-08T07:41:08.551Z,102038.13
2023-05-08T07:43:35.982Z,102045.16
2023-05-08T07:46:03.435Z,102038.97
2023-05-08T07:48:30.503Z,102041.53
2023-05-08T07:50:57.584Z,102042.31
2023-05-08T07:53:24.811Z,102038.00
2023-05-08T07:55:51.999Z,102036.41
2023-05-08T07:58:19.355Z,102029.63
2023-05-08T08:00:47.107Z,102045.41
2023-05-08T08:03:14.319Z,102042.63
2023-05-08T08:05:42.040Z,102048.88
2023-05-08T08:08:09.078Z,102039.22
2023-05-08T08:10:36.364Z,102045.22
2023-05-08T08:13:03.385Z,102041.84
2023-05-08T08:15:30.639Z,102042.81
2023-05-08T08:17:57.643Z,102042.91
2023-05-08T08:20:24.726Z,102036.97
2023-05-08T08:22:51.857Z,102047.63
2023-05-08T08:25:19.020Z,102041.56
2023-05-08T08:27:46.273Z,102039.91
2023-05-08T08:30:18.079Z,102046.06
2023-05-08T08:32:46.996Z,102047.88
2023-05-08T08:35:14.755Z,102045.31
2023-05-08T08:37:43.155Z,102043.63
2023-05-08T08:40:10.574Z,102040.13
2023-05-08T08:42:37.780Z,102039.25
2023-05-08T08:45:07.050Z,102040.22
2023-05-08T08:47:37.798Z,102038.38
2023-05-08T08:50:06.315Z,102038.31
2023-05-08T08:53:00.666Z,102036.75
2023-05-08T08:55:29.344Z,102035.78
2023-05-08T08:58:11.327Z,102037.44
2023-05-08T09:00:39.441Z,102034.81
2023-05-08T09:03:07.954Z,102038.44
2023-05-08T09:05:35.910Z,102035.78
2023-05-08T09:08:03.244Z,102038.38
2023-05-08T09:10:30.326Z,102045.38
2023-05-08T09:12:57.589Z,102039.22
2023-05-08T09:15:24.853Z,102042.00
2023-05-08T09:17:51.968Z,102036.75
2023-05-08T09:20:19.510Z,102038.53
2023-05-08T09:22:47.132Z,102042.94
2023-05-08T09:25:14.471Z,102037.78
2023-05-08T09:27:41.840Z,102036.97
2023-05-08T09:30:11.129Z,102029.09
2023-05-08T09:32:40.030Z,102027.22
2023-05-08T09:35:08.618Z,102032.59
2023-05-08T09:37:40.353Z,102041.38
2023-05-08T09:40:28.336Z,102038.84
2023-05-08T09:42:55.476Z,102043.19
2023-05-08T09:45:31.244Z,102027.41
2023-05-08T09:47:58.864Z,102039.63
2023-05-08T09:50:26.080Z,102037.84
2023-05-08T09:52:53.585Z,102039.69
2023-05-08T09:55:20.804Z,102043.22
2023-05-08T09:57:59.756Z,102044.09
2023-05-08T10:00:28.892Z,102044.09
2023-05-08T10:03:03.663Z,102035.34
2023-05-08T10:05:33.118Z,102042.38
2023-05-08T10:08:17.884Z,102031.84
2023-05-08T10:10:44.992Z,102038.84
2023-05-08T10:13:12.089Z,102040.59
2023-05-08T10:15:42.802Z,102043.22
2023-05-08T10:18:12.180Z,102047.59
2023-05-08T10:20:41.630Z,102045.81
2023-05-08T10:23:11.551Z,102045.75
2023-05-08T10:25:45.318Z,102044.00
2023-05-08T10:28:39.869Z,102040.56
2023-05-08T10:31:08.200Z,102044.06
2023-05-08T10:33:40.508Z,102040.47
2023-05-08T10:36:10.003Z,102039.53
2023-05-08T10:38:41.495Z,102029.91
2023-05-08T10:41:11.030Z,102038.69
2023-05-08T10:43:42.215Z,102039.47
2023-05-08T10:46:22.958Z,102033.44
2023-05-08T10:49:23.996Z,102036.19
2023-05-08T10:51:55.868Z,102039.75
2023-05-08T10:54:38.592Z,102038.00
2023-05-08T10:57:10.656Z,102036.22
2023-05-08T10:59:38.426Z,102030.06
2023-05-08T11:02:07.921Z,102027.38
2023-05-08T11:04:35.823Z,102028.13
2023-05-08T11:07:04.516Z,102026.31
2023-05-08T11:09:43.578Z,102025.44
2023-05-08T11:12:22.880Z,102026.28
2023-05-08T11:15:06.241Z,102030.81
2023-05-08T11:17:34.587Z,102022.09
2023-05-08T11:20:07.060Z,102025.66
2023-05-08T11:22:35.755Z,102016.94
2023-05-08T11:25:10.436Z,102016.97
2023-05-08T11:27:38.825Z,102027.44
2023-05-08T11:30:41.338Z,102009.00
2023-05-08T11:33:08.398Z,102019.50
2023-05-08T11:35:54.040Z,102012.56
2023-05-08T11:38:36.260Z,101999.47
2023-05-08T11:41:10.255Z,101999.47
2023-05-08T11:43:44.309Z,102003.78
2023-05-08T11:46:17.582Z,102009.03
2023-05-08T11:48:45.207Z,101994.16
2023-05-08T11:51:13.694Z,101997.69
2023-05-08T11:53:41.018Z,102005.50
2023-05-08T11:56:08.747Z,102003.81
2023-05-08T11:58:36.873Z,102008.94
2023-05-08T12:01:04.590Z,101994.88
2023-05-08T12:03:32.188Z,101997.47
2023-05-08T12:06:00.580Z,101994.03
2023-05-08T12:08:27.723Z,101999.38
2023-05-08T12:10:59.898Z,101995.81
2023-05-08T12:13:30.221Z,101988.78
2023-05-08T12:16:00.010Z,101993.19
2023-05-08T12:18:29.270Z,101991.41
2023-05-08T12:20:58.573Z,101996.75
2023-05-08T12:23:27.213Z,101995.03
2023-05-08T12:25:55.564Z,101994.97
2023-05-08T12:28:22.898Z,101990.50
2023-05-08T12:30:50.472Z,101987.81
2023-05-08T12:33:19.277Z,101985.91
2023-05-08T12:35:46.488Z,101994.41
2023-05-08T12:38:13.772Z,101996.09
2023-05-08T12:40:43.891Z,101991.75
2023-05-08T12:43:11.433Z,101983.03
2023-05-08T12:45:40.491Z,101979.59
2023-05-08T12:48:15.886Z,101980.16
2023-05-08T12:50:45.094Z,101972.84
2023-05-08T12:53:14.040Z,101974.66
2023-05-08T12:55:52.739Z,101968.81
2023-05-08T12:58:24.035Z,101966.59
2023-05-08T13:00:52.857Z,101960.38
2023-05-08T13:03:25.718Z,101956.13
2023-05-08T13:05:55.120Z,101954.41
2023-05-08T13:08:37.074Z,101956.91
2023-05-08T13:11:06.720Z,101948.66
2023-05-08T13:13:35.895Z,101942.41
2023-05-08T13:16:07.555Z,101947.56
2023-05-08T13:18:36.984Z,101948.47
2023-05-08T13:21:04.559Z,101953.81
2023-05-08T13:23:31.660Z,101950.22
2023-05-08T13:25:58.695Z,101949.44
2023-05-08T13:28:25.763Z,101950.78
2023-05-08T13:30:52.844Z,101942.38
2023-05-08T13:33:19.981Z,101944.25
2023-05-08T13:35:47.516Z,101937.44
2023-05-08T13:38:14.635Z,101936.56
2023-05-08T13:40:41.770Z,101936.63
2023-05-08T13:43:08.922Z,101930.56
2023-05-08T13:45:36.119Z,101923.91
2023-05-08T13:48:03.355Z,101932.47
2023-05-08T13:50:30.566Z,101926.22
2023-05-08T13:52:57.621Z,101932.69
2023-05-08T13:55:24.759Z,101936.63
2023-05-08T13:57:52.115Z,101925.22
2023-05-08T14:00:19.638Z,101927.06
2023-05-08T14:02:48.812Z,101928.84
2023-05-08T14:05:17.447Z,101928.84
2023-05-08T14:07:45.410Z,101919.97
2023-05-08T14:10:12.555Z,101920.53
2023-05-08T14:12:40.387Z,101912.47
2023-05-08T14:15:08.210Z,101911.16
2023-05-08T14:17:36.220Z,101909.91
2023-05-08T14:20:04.720Z,101916.78
2023-05-08T14:22:31.850Z,101918.50
2023-05-08T14:24:58.944Z,101908.25
2023-05-08T14:27:26.101Z,101907.69
2023-05-08T14:29:54.065Z,101907.94
2023-05-08T14:32:21.309Z,101905.47
2023-05-08T14:34:48.344Z,101892.53
2023-05-08T14:37:19.334Z,101894.44
2023-05-08T14:39:46.396Z,101899.75
2023-05-08T14:42:22.789Z,101904.25
2023-05-08T14:44:51.599Z,101900.88
2023-05-08T14:47:18.916Z,101904.44
2023-05-08T14:49:46.075Z,101898.34
2023-05-08T14:52:13.331Z,101900.97
2023-05-08T14:54:40.605Z,101895.66
2023-05-08T14:57:07.771Z,101896.47
2023-05-08T14:59:34.782Z,101896.34
2023-05-08T15:02:02.018Z,101898.06
2023-05-08T15:04:29.100Z,101898.00
2023-05-08T15:06:56.190Z,101906.84
2023-05-08T15:09:23.395Z,101888.53
2023-05-08T15:11:50.557Z,101905.91
2023-05-08T15:14:18.000Z,101902.41
2023-05-08T15:16:45.057Z,101898.03
2023-05-08T15:19:12.282Z,101893.69
2023-05-08T15:21:39.303Z,101889.38
2023-05-08T15:24:07.039Z,101879.75
2023-05-08T15:26:34.391Z,101892.03
2023-05-08T15:29:02.001Z,101891.28
2023-05-08T15:31:29.110Z,101892.22
2023-05-08T15:33:56.212Z,101894.84
2023-05-08T15:36:23.328Z,101888.75
2023-05-08T15:38:50.686Z,101884.34
2023-05-08T15:41:17.825Z,101878.22
2023-05-08T15:43:45.970Z,101883.44
2023-05-08T15:46:13.120Z,101876.38
2023-05-08T15:48:40.244Z,101878.13
2023-05-08T15:51:07.389Z,101885.13
2023-05-08T15:53:35.976Z,101888.59
2023-05-08T15:56:06.106Z,101882.34
2023-05-08T15:58:33.209Z,101881.44
2023-05-08T16:01:00.803Z,101877.03
2023-05-08T16:03:28.185Z,101880.53
2023-05-08T16:05:55.473Z,101881.44
2023-05-08T16:08:22.744Z,101883.25
2023-05-08T16:10:49.863Z,101885.13
2023-05-08T16:13:17.524Z,101877.16
2023-05-08T16:15:44.691Z,101887.69
2023-05-08T16:18:11.897Z,101876.44
2023-05-08T16:20:41.706Z,101885.28
2023-05-08T16:23:08.900Z,101881.81
2023-05-08T16:25:36.342Z,101887.00
2023-05-08T16:28:03.947Z,101877.38
2023-05-08T16:30:31.058Z,101872.13
2023-05-08T16:32:58.203Z,101876.50
2023-05-08T16:35:25.372Z,101888.13
2023-05-08T16:37:54.782Z,101889.09
2023-05-08T16:40:21.883Z,101888.22
2023-05-08T16:42:48.914Z,101882.13
2023-05-08T16:45:16.266Z,101872.47
2023-05-08T16:47:43.376Z,101876.03
2023-05-08T16:50:11.032Z,101879.63
2023-05-08T16:52:38.482Z,101876.16
2023-05-08T16:55:06.242Z,101877.88
2023-05-08T16:57:34.025Z,101870.88
2023-05-08T17:00:01.777Z,101868.25
2023-05-08T17:02:28.910Z,101863.00
2023-05-08T17:04:56.014Z,101863.03
2023-05-08T17:07:23.570Z,101861.28
2023-05-08T17:09:56.039Z,101852.53
2023-05-08T17:12:23.910Z,101855.16
2023-05-08T17:14:51.064Z,101858.59
2023-05-08T17:17:18.133Z,101856.84
2023-05-08T17:19:45.419Z,101860.34
2023-05-08T17:22:13.149Z,101864.78
2023-05-08T17:24:40.328Z,101863.88
2023-05-08T17:27:07.851Z,101870.00
2023-05-08T17:29:35.903Z,101874.38
2023-05-08T17:32:03.070Z,101872.66
2023-05-08T17:34:30.265Z,101874.41
2023-05-08T17:36:57.433Z,101873.56
2023-05-08T17:39:24.583Z,101886.69
2023-05-08T17:41:51.950Z,101882.28
2023-05-08T17:44:19.127Z,101877.03
2023-05-08T17:46:46.477Z,101877.94
2023-05-08T17:49:14.779Z,101868.28
2023-05-08T17:51:43.438Z,101870.03
2023-05-08T17:54:10.587Z,101860.44
2023-05-08T17:56:37.651Z,101863.03
2023-05-08T17:59:05.053Z,101871.75
2023-05-08T18:01:32.267Z,101867.44
2023-05-08T18:03:59.427Z,101858.72
2023-05-08T18:06:26.549Z,101871.81
2023-05-08T18:08:53.684Z,101877.03
2023-05-08T18:11:23.234Z,101878.81
2023-05-08T18:13:52.901Z,101883.19
2023-05-08T18:16:22.509Z,101895.38
2023-05-08T18:18:50.080Z,101892.78
2023-05-08T18:21:20.060Z,101890.13
2023-05-08T18:23:47.768Z,101888.38
2023-05-08T18:26:16.192Z,101891.00
2023-05-08T18:28:44.148Z,101897.13
2023-05-08T18:31:11.902Z,101893.63
2023-05-08T18:33:39.290Z,101895.34
2023-05-08T18:36:07.339Z,101895.38
2023-05-08T18:38:35.606Z,101886.59
2023-05-08T18:41:03.945Z,101883.09
2023-05-08T18:43:31.051Z,101879.59
2023-05-08T18:46:00.839Z,101881.31
2023-05-08T18:48:29.296Z,101884.81
2023-05-08T18:50:58.502Z,101879.56
2023-05-08T18:53:25.882Z,101877.81
2023-05-08T18:55:53.092Z,101868.19
2023-05-08T18:58:20.539Z,101866.44
2023-05-08T19:00:47.738Z,101863.78
2023-05-08T19:03:15.019Z,101855.91
2023-05-08T19:05:42.129Z,101856.78
2023-05-08T19:08:09.295Z,101858.50
2023-05-08T19:10:36.341Z,101864.56
2023-05-08T19:13:04.132Z,101860.22
2023-05-08T19:15:31.331Z,101856.69
2023-05-08T19:17:58.429Z,101868.94
2023-05-08T19:20:25.667Z,101863.66
2023-05-08T19:22:52.857Z,101870.63
2023-05-08T19:25:20.149Z,101869.75
2023-05-08T19:27:49.910Z,101863.59
2023-05-08T19:30:17.245Z,101866.22
2023-05-08T19:32:44.359Z,101864.47
2023-05-08T19:35:11.456Z,101861.84
2023-05-08T19:37:38.517Z,101868.78
2023-05-08T19:40:06.461Z,101879.19
2023-05-08T19:42:35.170Z,101874.81
2023-05-08T19:45:02.276Z,101867.81
2023-05-08T19:47:29.381Z,101873.91
2023-05-08T19:49:56.455Z,101873.94
2023-05-08T19:52:23.596Z,101872.13
2023-05-08T19:54:51.024Z,101867.75
2023-05-08T19:57:18.130Z,101868.59
2023-05-08T19:59:45.156Z,101880.78
2023-05-08T20:02:12.212Z,101882.47
2023-05-08T20:04:57.501Z,101884.16
2023-05-08T20:07:26.381Z,101878.88
2023-05-08T20:09:53.579Z,101876.25
2023-05-08T20:12:20.677Z,101873.56
2023-05-08T20:14:47.792Z,101870.03
2023-05-08T20:17:14.898Z,101877.03
2023-05-08T20:19:42.025Z,101882.22
2023-05-08T20:22:09.193Z,101873.47
2023-05-08T20:24:36.359Z,101869.88
2023-05-08T20:27:03.395Z,101873.13
2023-05-08T20:29:30.612Z,101879.16
2023-05-08T20:31:57.664Z,101880.91
2023-05-08T20:34:24.790Z,101886.19
2023-05-08T20:36:51.904Z,101883.56
2023-05-08T20:39:19.008Z,101889.66
2023-05-08T20:41:46.161Z,101892.34
2023-05-08T20:44:17.054Z,101896.75
2023-05-08T20:46:44.154Z,101899.31
2023-05-08T20:49:11.182Z,101892.03
2023-05-08T20:51:38.441Z,101892.16
2023-05-08T20:54:05.601Z,101897.38
2023-05-08T20:56:32.750Z,101900.06
2023-05-08T20:58:59.820Z,101891.31
2023-05-08T21:01:26.935Z,101886.94
2023-05-08T21:03:54.022Z,101880.06
2023-05-08T21:06:21.150Z,101884.44
2023-05-08T21:08:48.240Z,101883.56
2023-05-08T21:11:16.363Z,101877.50
2023-05-08T21:13:46.170Z,101876.56
2023-05-08T21:16:13.249Z,101867.97
2023-05-08T21:18:40.568Z,101864.50
2023-05-08T21:21:25.540Z,101856.69
2023-05-08T21:23:52.917Z,101854.94
2023-05-08T21:26:23.311Z,101854.09
2023-05-08T21:28:52.425Z,101854.13
2023-05-08T21:31:19.960Z,101851.47
2023-05-08T21:33:47.587Z,101853.25
2023-05-08T21:36:14.723Z,101850.63
2023-05-08T21:38:41.843Z,101853.22
2023-05-08T21:41:09.000Z,101851.47
2023-05-08T21:43:36.937Z,101849.72
2023-05-08T21:46:05.483Z,101854.09
2023-05-08T21:48:33.581Z,101851.47
2023-05-08T21:51:00.984Z,101834.03
2023-05-08T21:53:28.220Z,101841.94
2023-05-08T21:55:55.361Z,101831.47
2023-05-08T21:58:22.441Z,101825.34
2023-05-08T22:00:49.459Z,101821.91
2023-05-08T22:03:16.659Z,101817.50
2023-05-08T22:05:43.852Z,101812.28
2023-05-08T22:08:11.102Z,101822.72
2023-05-08T22:10:38.265Z,101819.25
2023-05-08T22:13:06.437Z,101824.47
2023-05-08T22:15:34.289Z,101821.88
2023-05-08T22:18:02.871Z,101809.66
2023-05-08T22:20:30.128Z,101807.88
2023-05-08T22:22:57.280Z,101799.97
2023-05-08T22:25:25.559Z,101801.75
2023-05-08T22:27:52.862Z,101796.50
2023-05-08T22:30:19.976Z,101791.28
2023-05-08T22:32:55.314Z,101786.91
2023-05-08T22:35:24.370Z,101786.00
2023-05-08T22:37:52.548Z,101780.75
2023-05-08T22:40:21.020Z,101774.63
2023-05-08T22:42:48.549Z,101780.69
2023-05-08T22:45:16.634Z,101776.28
2023-05-08T22:47:44.150Z,101768.41
2023-05-08T22:50:11.782Z,101759.66
2023-05-08T22:52:39.456Z,101748.28
2023-05-08T22:55:07.779Z,101750.91
2023-05-08T22:57:35.453Z,101743.97
2023-05-08T23:00:02.765Z,101740.44
2023-05-08T23:02:34.416Z,101733.44
2023-05-08T23:05:02.304Z,101723.81
2023-05-08T23:07:29.683Z,101725.50
2023-05-08T23:09:56.736Z,101719.38
2023-05-08T23:12:23.822Z,101724.59
2023-05-08T23:14:51.824Z,101727.16
2023-05-08T23:17:18.897Z,101714.88
2023-05-08T23:19:46.279Z,101719.25
2023-05-08T23:22:13.519Z,101714.03
2023-05-08T23:24:40.621Z,101712.28
2023-05-08T23:27:07.759Z,101715.72
2023-05-08T23:29:35.432Z,101715.72
2023-05-08T23:32:02.741Z,101709.63
2023-05-08T23:34:29.822Z,101708.75
2023-05-08T23:36:57.051Z,101707.84
2023-05-08T23:39:24.122Z,101693.91
2023-05-08T23:41:51.139Z,101688.72
2023-05-08T23:44:18.198Z,101688.69
2023-05-08T23:46:46.331Z,101679.09
2023-05-08T23:49:13.588Z,101674.72
2023-05-08T23:51:40.703Z,101677.28
2023-05-08T23:54:08.173Z,101670.31
2023-05-08T23:56:35.794Z,101672.06
2023-05-08T23:59:02.962Z,101675.63
